EDSB/FKB METAR and TAF weather

Enter ICAO airport designator
Station Type Date Time Source
EDSB METAR 2021/07/24 19:50 UTC NOAA

EDSB 241950Z 34004KT 300V010 9999 VCSH SCT048TCU 20/18 Q1009


Station Type Date Time Source
EDSB Decoded METAR 2021/07/24 19:50 UTC NOAA

Karlsruhe, Baden Wurttemberg, Germany (EDSB) 48-46-43N 008-04-47E
Jul 24, 2021 - 03:50 PM EDT / 2021.07.24 1950 UTC
Wind: from the NNW (340 degrees) at 5 MPH (4 KT) (direction variable):0
Visibility: greater than 7 mile(s):0
Sky conditions: partly cloudy
Weather: showers in the vicinity; Towering cumulus clouds observed
Temperature: 68 F (20 C)
Dew Point: 64 F (18 C)
Relative Humidity: 88%
Pressure (altimeter): 29.80 in. Hg (1009 hPa)
ob: EDSB 241950Z 34004KT 300V010 9999 VCSH SCT048TCU 20/18 Q1009
cycle: 20

Station Type Date Time Source
EDSB TAF 2021/07/24 18:27 UTC NOAA

TAF EDSB 241700Z 2418/2518 VRB03KT CAVOK PROB30
TEMPO 2418/2422 4000 TSRA BKN040CB PROB30
TEMPO 2502/2507 2000 BCFG PROB30
TEMPO 2512/2518 TSRA BKN030CB

Example: see airport list